createdAt,value
2023-05-24T00:00:08.562Z,0.00
2023-05-24T00:01:08.551Z,0.00
2023-05-24T00:02:08.536Z,0.00
2023-05-24T00:03:08.638Z,0.00
2023-05-24T00:04:08.586Z,0.00
2023-05-24T00:05:08.633Z,0.00
2023-05-24T00:06:08.496Z,0.00
2023-05-24T00:07:08.482Z,0.00
2023-05-24T00:08:08.479Z,0.00
2023-05-24T00:09:08.460Z,0.00
2023-05-24T00:10:08.449Z,0.00
2023-05-24T00:11:08.451Z,0.00
2023-05-24T00:12:08.435Z,0.00
2023-05-24T00:13:08.412Z,0.00
2023-05-24T00:14:08.404Z,0.00
2023-05-24T00:15:08.405Z,0.00
2023-05-24T00:16:08.405Z,0.00
2023-05-24T00:17:08.375Z,0.00
2023-05-24T00:18:08.514Z,0.00
2023-05-24T00:19:08.352Z,0.00
2023-05-24T00:20:08.375Z,0.00
2023-05-24T00:21:08.333Z,0.00
2023-05-24T00:22:08.320Z,0.00
2023-05-24T00:23:08.313Z,0.00
2023-05-24T00:24:08.295Z,0.00
2023-05-24T00:25:08.282Z,0.00
2023-05-24T00:26:08.268Z,0.00
2023-05-24T00:27:08.266Z,0.00
2023-05-24T00:28:08.264Z,0.00
2023-05-24T00:29:08.242Z,0.00
2023-05-24T00:30:08.246Z,0.00
2023-05-24T00:31:08.214Z,0.00
2023-05-24T00:32:08.226Z,0.00
2023-05-24T00:33:08.192Z,0.00
2023-05-24T00:34:08.180Z,0.00
2023-05-24T00:35:08.195Z,0.00
2023-05-24T00:36:08.210Z,0.00
2023-05-24T00:37:08.161Z,0.00
2023-05-24T00:38:08.137Z,0.00
2023-05-24T00:39:08.124Z,0.00
2023-05-24T00:40:08.113Z,0.00
2023-05-24T00:41:08.114Z,0.00
2023-05-24T00:42:08.105Z,0.00
2023-05-24T00:43:08.081Z,0.00
2023-05-24T00:44:08.069Z,0.00
2023-05-24T00:45:08.066Z,0.00
2023-05-24T00:46:08.100Z,0.00
2023-05-24T00:47:08.038Z,0.00
2023-05-24T00:48:08.059Z,0.00
2023-05-24T00:49:08.021Z,0.00
2023-05-24T00:50:07.999Z,0.00
2023-05-24T00:51:08.006Z,0.00
2023-05-24T00:52:08.008Z,0.00
2023-05-24T00:53:07.971Z,0.00
2023-05-24T00:54:07.976Z,0.00
2023-05-24T00:55:07.952Z,0.00
2023-05-24T00:56:07.944Z,0.00
2023-05-24T00:57:07.989Z,0.00
2023-05-24T00:58:07.949Z,0.00
2023-05-24T00:59:07.905Z,0.00
2023-05-24T01:00:07.903Z,0.00
2023-05-24T01:01:07.934Z,0.00
2023-05-24T01:02:07.886Z,0.00
2023-05-24T01:03:07.993Z,0.00
2023-05-24T01:04:07.853Z,0.00
2023-05-24T01:05:07.839Z,0.00
2023-05-24T01:06:07.976Z,0.00
2023-05-24T01:07:07.832Z,0.00
2023-05-24T01:08:07.868Z,0.00
2023-05-24T01:09:07.808Z,0.00
2023-05-24T01:10:07.782Z,0.00
2023-05-24T01:11:07.772Z,0.00
2023-05-24T01:12:07.776Z,0.00
2023-05-24T01:13:07.751Z,0.00
2023-05-24T01:14:07.744Z,0.00
2023-05-24T01:15:07.740Z,0.00
2023-05-24T01:16:07.802Z,0.00
2023-05-24T01:17:07.708Z,0.00
2023-05-24T01:18:07.959Z,0.00
2023-05-24T01:19:07.687Z,0.00
2023-05-24T01:20:07.756Z,0.00
2023-05-24T01:21:07.679Z,0.00
2023-05-24T01:22:07.649Z,0.00
2023-05-24T01:23:07.643Z,0.00
2023-05-24T01:24:07.652Z,0.00
2023-05-24T01:25:07.624Z,0.00
2023-05-24T01:26:07.605Z,0.00
2023-05-24T01:27:07.619Z,0.00
2023-05-24T01:28:07.590Z,0.00
2023-05-24T01:29:07.593Z,0.00
2023-05-24T01:30:07.566Z,0.00
2023-05-24T01:31:07.560Z,0.00
2023-05-24T01:32:07.543Z,0.00
2023-05-24T01:33:07.559Z,0.00
2023-05-24T01:34:07.515Z,0.00
2023-05-24T01:35:07.509Z,0.00
2023-05-24T01:36:07.499Z,0.00
2023-05-24T01:37:07.493Z,0.00
2023-05-24T01:38:07.469Z,0.00
2023-05-24T01:39:07.481Z,0.00
2023-05-24T01:40:07.469Z,0.00
2023-05-24T01:41:07.451Z,0.00
2023-05-24T01:42:07.427Z,0.00
2023-05-24T01:43:07.420Z,0.00
2023-05-24T01:44:07.397Z,0.00
2023-05-24T01:45:07.398Z,0.00
2023-05-24T01:46:07.379Z,0.00
2023-05-24T01:47:07.556Z,0.00
2023-05-24T01:48:07.398Z,0.00
2023-05-24T01:49:07.346Z,0.00
2023-05-24T01:50:07.336Z,0.00
2023-05-24T01:51:07.327Z,0.00
2023-05-24T01:52:07.338Z,0.00
2023-05-24T01:53:07.309Z,0.00
2023-05-24T01:54:07.296Z,0.00
2023-05-24T01:55:07.281Z,0.00
2023-05-24T01:56:07.292Z,0.00
2023-05-24T01:57:07.257Z,0.00
2023-05-24T01:58:07.248Z,0.00
2023-05-24T01:59:07.236Z,0.00
2023-05-24T02:00:07.220Z,0.00
2023-05-24T02:01:07.243Z,0.00
2023-05-24T02:02:07.233Z,0.00
2023-05-24T02:03:07.269Z,0.00
2023-05-24T02:04:07.187Z,0.00
2023-05-24T02:05:07.168Z,0.00
2023-05-24T02:06:07.153Z,0.00
2023-05-24T02:07:07.144Z,0.00
2023-05-24T02:08:07.128Z,0.00
2023-05-24T02:09:07.128Z,0.00
2023-05-24T02:10:07.113Z,0.00
2023-05-24T02:11:07.100Z,0.00
2023-05-24T02:12:07.118Z,0.00
2023-05-24T02:13:07.078Z,0.00
2023-05-24T02:14:07.067Z,0.00
2023-05-24T02:15:07.073Z,0.00
2023-05-24T02:16:07.045Z,0.00
2023-05-24T02:17:07.104Z,0.00
2023-05-24T02:18:07.085Z,0.00
2023-05-24T02:19:07.019Z,0.00
2023-05-24T02:20:07.032Z,0.00
2023-05-24T02:21:06.988Z,0.00
2023-05-24T02:22:06.980Z,0.00
2023-05-24T02:23:06.975Z,0.00
2023-05-24T02:24:06.989Z,0.00
2023-05-24T02:25:06.954Z,0.00
2023-05-24T02:26:06.935Z,0.00
2023-05-24T02:27:06.926Z,0.00
2023-05-24T02:28:06.942Z,0.00
2023-05-24T02:29:06.907Z,0.00
2023-05-24T02:30:06.890Z,0.00
2023-05-24T02:31:06.980Z,4.00
2023-05-24T02:32:06.866Z,4.00
2023-05-24T02:33:06.992Z,4.00
2023-05-24T02:34:06.845Z,4.00
2023-05-24T02:35:06.840Z,4.00
2023-05-24T02:36:06.825Z,0.00
2023-05-24T02:37:06.816Z,4.00
2023-05-24T02:38:06.863Z,4.00
2023-05-24T02:39:06.789Z,4.00
2023-05-24T02:40:06.779Z,4.00
2023-05-24T02:41:06.767Z,8.00
2023-05-24T02:42:06.754Z,4.00
2023-05-24T02:43:06.749Z,8.00
2023-05-24T02:44:06.769Z,8.00
2023-05-24T02:45:06.720Z,8.00
2023-05-24T02:46:06.728Z,12.00
2023-05-24T02:47:06.700Z,16.00
2023-05-24T02:48:06.729Z,20.00
2023-05-24T02:49:06.675Z,20.00
2023-05-24T02:50:06.677Z,24.00
2023-05-24T02:51:06.666Z,28.00
2023-05-24T02:52:06.642Z,32.00
2023-05-24T02:53:06.630Z,32.00
2023-05-24T02:54:06.629Z,40.00
2023-05-24T02:55:06.612Z,48.00
2023-05-24T02:56:06.592Z,52.00
2023-05-24T02:57:06.587Z,60.00
2023-05-24T02:58:06.575Z,64.00
2023-05-24T02:59:06.563Z,72.00
2023-05-24T03:00:06.572Z,76.00
2023-05-24T03:01:06.542Z,84.00
2023-05-24T03:02:06.643Z,96.00
2023-05-24T03:03:06.592Z,100.00
2023-05-24T03:04:06.533Z,108.00
2023-05-24T03:05:06.498Z,112.00
2023-05-24T03:06:06.481Z,120.00
2023-05-24T03:07:06.472Z,120.00
2023-05-24T03:08:06.457Z,124.00
2023-05-24T03:09:06.449Z,128.00
2023-05-24T03:10:06.454Z,128.00
2023-05-24T03:11:06.424Z,128.00
2023-05-24T03:12:06.454Z,136.00
2023-05-24T03:13:06.407Z,152.00
2023-05-24T03:14:06.401Z,184.00
2023-05-24T03:15:06.388Z,232.00
2023-05-24T03:16:06.469Z,264.00
2023-05-24T03:17:06.399Z,280.00
2023-05-24T03:18:06.519Z,276.00
2023-05-24T03:19:09.188Z,276.00
2023-05-24T03:20:06.517Z,268.00
2023-05-24T03:21:06.497Z,256.00
2023-05-24T03:22:06.473Z,244.00
2023-05-24T03:23:06.314Z,216.00
2023-05-24T03:24:06.288Z,184.00
2023-05-24T03:25:06.280Z,180.00
2023-05-24T03:26:06.258Z,216.00
2023-05-24T03:27:06.256Z,332.00
2023-05-24T03:28:06.238Z,508.00
2023-05-24T03:29:06.232Z,716.00
2023-05-24T03:30:06.216Z,892.00
2023-05-24T03:31:06.207Z,1036.00
2023-05-24T03:32:06.266Z,1156.00
2023-05-24T03:33:06.220Z,1268.00
2023-05-24T03:34:06.166Z,1356.00
2023-05-24T03:35:06.165Z,1436.00
2023-05-24T03:36:06.147Z,1504.00
2023-05-24T03:37:06.162Z,1568.00
2023-05-24T03:38:06.135Z,1628.00
2023-05-24T03:39:06.150Z,1696.00
2023-05-24T03:40:06.110Z,1764.00
2023-05-24T03:41:06.111Z,1824.00
2023-05-24T03:42:06.085Z,1848.00
2023-05-24T03:43:06.081Z,1868.00
2023-05-24T03:44:06.085Z,1896.00
2023-05-24T03:45:06.051Z,1920.00
2023-05-24T03:46:06.073Z,1956.00
2023-05-24T03:47:06.031Z,2004.00
2023-05-24T03:48:06.096Z,2032.00
2023-05-24T03:49:06.014Z,2020.00
2023-05-24T03:50:05.990Z,1932.00
2023-05-24T03:51:06.004Z,1824.00
2023-05-24T03:52:05.978Z,1700.00
2023-05-24T03:53:05.969Z,1468.00
2023-05-24T03:54:05.946Z,1104.00
2023-05-24T03:55:05.940Z,828.00
2023-05-24T03:56:05.935Z,740.00
2023-05-24T03:57:05.911Z,764.00
2023-05-24T03:58:05.912Z,816.00
2023-05-24T03:59:05.895Z,852.00
2023-05-24T04:00:05.875Z,868.00
2023-05-24T04:01:05.907Z,972.00
2023-05-24T04:02:05.904Z,1164.00
2023-05-24T04:03:05.919Z,1236.00
2023-05-24T04:04:05.928Z,1208.00
2023-05-24T04:05:05.824Z,1128.00
2023-05-24T04:06:05.810Z,1148.00
2023-05-24T04:07:05.800Z,1096.00
2023-05-24T04:08:05.796Z,888.00
2023-05-24T04:09:05.776Z,728.00
2023-05-24T04:10:05.763Z,640.00
2023-05-24T04:11:05.755Z,580.00
2023-05-24T04:12:05.743Z,552.00
2023-05-24T04:13:05.743Z,604.00
2023-05-24T04:14:05.719Z,692.00
2023-05-24T04:15:05.718Z,912.00
2023-05-24T04:16:05.702Z,1220.00
2023-05-24T04:17:05.782Z,1332.00
2023-05-24T04:18:05.799Z,1368.00
2023-05-24T04:19:05.664Z,1384.00
2023-05-24T04:20:05.728Z,1276.00
2023-05-24T04:21:05.641Z,1116.00
2023-05-24T04:22:05.623Z,1092.00
2023-05-24T04:23:05.618Z,1272.00
2023-05-24T04:24:05.607Z,1524.00
2023-05-24T04:25:05.668Z,1664.00
2023-05-24T04:26:05.584Z,1708.00
2023-05-24T04:27:05.569Z,1776.00
2023-05-24T04:28:05.564Z,1876.00
2023-05-24T04:29:05.557Z,1900.00
2023-05-24T04:30:05.540Z,1824.00
2023-05-24T04:31:05.535Z,1728.00
2023-05-24T04:32:05.521Z,1600.00
2023-05-24T04:33:05.591Z,1684.00
2023-05-24T04:34:05.497Z,1880.00
2023-05-24T04:35:05.486Z,1940.00
2023-05-24T04:36:05.512Z,1856.00
2023-05-24T04:37:05.463Z,1812.00
2023-05-24T04:38:05.461Z,1872.00
2023-05-24T04:39:05.452Z,1856.00
2023-05-24T04:40:05.444Z,1700.00
2023-05-24T04:41:05.432Z,1656.00
2023-05-24T04:42:05.420Z,1868.00
2023-05-24T04:43:05.397Z,2032.00
2023-05-24T04:44:05.390Z,2204.00
2023-05-24T04:45:05.384Z,2320.00
2023-05-24T04:46:06.899Z,2456.00
2023-05-24T04:47:05.528Z,2580.00
2023-05-24T04:48:05.378Z,2708.00
2023-05-24T04:49:05.329Z,2856.00
2023-05-24T04:50:05.323Z,2928.00
2023-05-24T04:51:05.307Z,3020.00
2023-05-24T04:52:05.323Z,3300.00
2023-05-24T04:53:05.290Z,3424.00
2023-05-24T04:54:05.277Z,3412.00
2023-05-24T04:55:05.263Z,3224.00
2023-05-24T04:56:05.252Z,2996.00
2023-05-24T04:57:05.268Z,3036.00
2023-05-24T04:58:05.256Z,3340.00
2023-05-24T04:59:05.218Z,3656.00
2023-05-24T05:00:05.209Z,3624.00
2023-05-24T05:01:05.199Z,3236.00
2023-05-24T05:02:05.294Z,2796.00
2023-05-24T05:03:05.284Z,2428.00
2023-05-24T05:04:05.302Z,2244.00
2023-05-24T05:05:05.183Z,2328.00
2023-05-24T05:06:05.141Z,2456.00
2023-05-24T05:07:05.142Z,2616.00
2023-05-24T05:08:05.143Z,2420.00
2023-05-24T05:09:05.102Z,2164.00
2023-05-24T05:10:05.112Z,2044.00
2023-05-24T05:11:05.082Z,2024.00
2023-05-24T05:12:05.072Z,2128.00
2023-05-24T05:13:05.090Z,2228.00
2023-05-24T05:14:05.051Z,2216.00
2023-05-24T05:15:05.039Z,2348.00
2023-05-24T05:16:05.089Z,2744.00
2023-05-24T05:17:05.011Z,2968.00
2023-05-24T05:18:05.038Z,3060.00
2023-05-24T05:19:05.004Z,3256.00
2023-05-24T05:20:05.035Z,3372.00
2023-05-24T05:21:04.976Z,3400.00
2023-05-24T05:22:04.959Z,3108.00
2023-05-24T05:23:04.948Z,2880.00
2023-05-24T05:24:05.011Z,2864.00
2023-05-24T05:25:04.926Z,3008.00
2023-05-24T05:26:04.912Z,3300.00
2023-05-24T05:27:04.901Z,3428.00
2023-05-24T05:28:04.892Z,3588.00
2023-05-24T05:29:04.883Z,3696.00
2023-05-24T05:30:04.890Z,3796.00
2023-05-24T05:31:04.855Z,4144.00
2023-05-24T05:32:04.923Z,4312.00
2023-05-24T05:33:04.907Z,4488.00
2023-05-24T05:34:04.832Z,4788.00
2023-05-24T05:35:04.817Z,4752.00
2023-05-24T05:36:04.805Z,4628.00
2023-05-24T05:37:04.790Z,4520.00
2023-05-24T05:38:04.783Z,4536.00
2023-05-24T05:39:04.776Z,4712.00
2023-05-24T05:40:04.787Z,4452.00
2023-05-24T05:41:04.753Z,3884.00
2023-05-24T05:42:04.750Z,4460.00
2023-05-24T05:43:04.744Z,4920.00
2023-05-24T05:44:04.716Z,5696.00
2023-05-24T05:45:04.711Z,5896.00
2023-05-24T05:46:04.755Z,5744.00
2023-05-24T05:47:04.682Z,6344.00
2023-05-24T05:48:04.717Z,7596.00
2023-05-24T05:49:04.679Z,7984.00
2023-05-24T05:50:04.655Z,7700.00
2023-05-24T05:51:04.644Z,7376.00
2023-05-24T05:52:04.630Z,6960.00
2023-05-24T05:53:04.612Z,6532.00
2023-05-24T05:54:04.604Z,6304.00
2023-05-24T05:55:04.603Z,6168.00
2023-05-24T05:56:04.676Z,6192.00
2023-05-24T05:57:04.579Z,6456.00
2023-05-24T05:58:04.567Z,6888.00
2023-05-24T05:59:04.548Z,6464.00
2023-05-24T06:00:04.542Z,5040.00
2023-05-24T06:01:04.533Z,3936.00
2023-05-24T06:02:04.557Z,4164.00
2023-05-24T06:03:04.596Z,4548.00
2023-05-24T06:04:04.532Z,4980.00
2023-05-24T06:05:04.480Z,4776.00
2023-05-24T06:06:04.468Z,4648.00
2023-05-24T06:07:04.473Z,5056.00
2023-05-24T06:08:04.445Z,5956.00
2023-05-24T06:09:04.439Z,6644.00
2023-05-24T06:10:04.435Z,7000.00
2023-05-24T06:11:04.424Z,6732.00
2023-05-24T06:12:04.424Z,6032.00
2023-05-24T06:13:04.394Z,6776.00
2023-05-24T06:14:04.388Z,7308.00
2023-05-24T06:15:04.385Z,7528.00
2023-05-24T06:16:04.397Z,7576.00
2023-05-24T06:17:04.346Z,7804.00
2023-05-24T06:18:04.394Z,8412.00
2023-05-24T06:19:06.327Z,8940.00
2023-05-24T06:20:04.342Z,8436.00
2023-05-24T06:21:04.298Z,7116.00
2023-05-24T06:22:04.291Z,6392.00
2023-05-24T06:23:04.279Z,6220.00
2023-05-24T06:24:04.273Z,6112.00
2023-05-24T06:25:04.260Z,5776.00
2023-05-24T06:26:04.245Z,5488.00
2023-05-24T06:27:05.587Z,5400.00
2023-05-24T06:28:04.247Z,5296.00
2023-05-24T06:29:04.215Z,5352.00
2023-05-24T06:30:04.319Z,6132.00
2023-05-24T06:31:04.241Z,7156.00
2023-05-24T06:32:04.181Z,7200.00
2023-05-24T06:33:04.221Z,6768.00
2023-05-24T06:34:04.811Z,6508.00
2023-05-24T06:35:04.150Z,6192.00
2023-05-24T06:36:04.138Z,5620.00
2023-05-24T06:37:04.132Z,4764.00
2023-05-24T06:38:04.126Z,4332.00
2023-05-24T06:39:04.116Z,4620.00
2023-05-24T06:40:04.165Z,4716.00
2023-05-24T06:41:04.085Z,4348.00
2023-05-24T06:42:04.073Z,4340.00
2023-05-24T06:43:04.054Z,4676.00
2023-05-24T06:44:04.169Z,5040.00
2023-05-24T06:45:04.064Z,5340.00
2023-05-24T06:46:04.192Z,5448.00
2023-05-24T06:47:04.046Z,5780.00
2023-05-24T06:48:04.080Z,6516.00
2023-05-24T06:49:04.081Z,7180.00
2023-05-24T06:50:03.988Z,7524.00
2023-05-24T06:51:03.969Z,8260.00
2023-05-24T06:52:03.996Z,8020.00
2023-05-24T06:53:03.947Z,7608.00
2023-05-24T06:54:03.934Z,7528.00
2023-05-24T06:55:03.919Z,7652.00
2023-05-24T06:56:03.915Z,7704.00
2023-05-24T06:57:03.924Z,7820.00
2023-05-24T06:58:03.890Z,7784.00
2023-05-24T06:59:03.896Z,7372.00
2023-05-24T07:00:03.940Z,8036.00
2023-05-24T07:01:03.930Z,7936.00
2023-05-24T07:02:04.353Z,7892.00
2023-05-24T07:03:03.915Z,8812.00
2023-05-24T07:04:03.869Z,9368.00
2023-05-24T07:05:03.851Z,9444.00
2023-05-24T07:06:03.794Z,9352.00
2023-05-24T07:07:03.797Z,8544.00
2023-05-24T07:08:03.772Z,8072.00
2023-05-24T07:09:03.760Z,9104.00
2023-05-24T07:10:03.750Z,9112.00
2023-05-24T07:11:03.768Z,9304.00
2023-05-24T07:12:03.738Z,9632.00
2023-05-24T07:13:03.715Z,9444.00
2023-05-24T07:14:03.709Z,8628.00
2023-05-24T07:15:03.686Z,8804.00
2023-05-24T07:16:03.720Z,9140.00
2023-05-24T07:17:03.783Z,9012.00
2023-05-24T07:18:03.684Z,8288.00
2023-05-24T07:19:04.860Z,8592.00
2023-05-24T07:20:03.870Z,9660.00
2023-05-24T07:21:03.626Z,9768.00
2023-05-24T07:22:03.616Z,10300.00
2023-05-24T07:23:03.603Z,10420.00
2023-05-24T07:24:03.597Z,10300.00
2023-05-24T07:25:03.583Z,10564.00
2023-05-24T07:26:03.577Z,11668.00
2023-05-24T07:27:03.556Z,12900.00
2023-05-24T07:28:03.574Z,12460.00
2023-05-24T07:29:03.540Z,12276.00
2023-05-24T07:30:03.529Z,12464.00
2023-05-24T07:31:03.515Z,12316.00
2023-05-24T07:32:03.551Z,13408.00
2023-05-24T07:33:03.882Z,15216.00
2023-05-24T07:34:03.486Z,14476.00
2023-05-24T07:35:03.473Z,13520.00
2023-05-24T07:36:03.459Z,13300.00
2023-05-24T07:37:03.459Z,12496.00
2023-05-24T07:38:03.437Z,12544.00
2023-05-24T07:39:03.422Z,10836.00
2023-05-24T07:40:03.427Z,10656.00
2023-05-24T07:41:03.396Z,10540.00
2023-05-24T07:42:03.395Z,10800.00
2023-05-24T07:43:04.331Z,11784.00
2023-05-24T07:44:03.380Z,12252.00
2023-05-24T07:45:03.365Z,13072.00
2023-05-24T07:46:03.384Z,13592.00
2023-05-24T07:47:03.362Z,11968.00
2023-05-24T07:48:03.381Z,11636.00
2023-05-24T07:49:03.322Z,11692.00
2023-05-24T07:50:03.302Z,11340.00
2023-05-24T07:51:03.288Z,10708.00
2023-05-24T07:52:03.284Z,10412.00
2023-05-24T07:53:03.272Z,10472.00
2023-05-24T07:54:03.252Z,10664.00
2023-05-24T07:55:03.248Z,10832.00
2023-05-24T07:56:03.278Z,11540.00
2023-05-24T07:57:03.223Z,12020.00
2023-05-24T07:58:03.208Z,12444.00
2023-05-24T07:59:03.203Z,12652.00
2023-05-24T08:00:03.201Z,11672.00
2023-05-24T08:01:03.175Z,11220.00
2023-05-24T08:02:03.173Z,11116.00
2023-05-24T08:03:03.272Z,11516.00
2023-05-24T08:04:03.542Z,11640.00
2023-05-24T08:05:03.133Z,12760.00
2023-05-24T08:06:03.119Z,13452.00
2023-05-24T08:07:03.129Z,11900.00
2023-05-24T08:08:03.147Z,11576.00
2023-05-24T08:09:03.082Z,13088.00
2023-05-24T08:10:03.079Z,13552.00
2023-05-24T08:11:03.077Z,12624.00
2023-05-24T08:12:03.057Z,13116.00
2023-05-24T08:13:03.048Z,12068.00
2023-05-24T08:14:03.034Z,11392.00
2023-05-24T08:15:03.017Z,11604.00
2023-05-24T08:16:03.033Z,10796.00
2023-05-24T08:17:03.026Z,10224.00
2023-05-24T08:18:03.015Z,10348.00
2023-05-24T08:19:02.978Z,11260.00
2023-05-24T08:20:03.045Z,13300.00
2023-05-24T08:21:02.948Z,14324.00
2023-05-24T08:22:02.939Z,15044.00
2023-05-24T08:23:02.926Z,15272.00
2023-05-24T08:24:02.926Z,16800.00
2023-05-24T08:25:02.905Z,16136.00
2023-05-24T08:26:02.902Z,14024.00
2023-05-24T08:27:02.891Z,14596.00
2023-05-24T08:28:02.917Z,12388.00
2023-05-24T08:29:02.865Z,10756.00
2023-05-24T08:30:02.870Z,10944.00
2023-05-24T08:31:02.840Z,13424.00
2023-05-24T08:32:02.907Z,16608.00
2023-05-24T08:33:02.849Z,18592.00
2023-05-24T08:34:02.809Z,18368.00
2023-05-24T08:35:18.409Z,17664.00
2023-05-24T08:36:03.101Z,16608.00
2023-05-24T08:37:02.776Z,15208.00
2023-05-24T08:38:02.773Z,14724.00
2023-05-24T08:39:02.748Z,13624.00
2023-05-24T08:40:02.741Z,13368.00
2023-05-24T08:41:02.727Z,14096.00
2023-05-24T08:43:02.706Z,13484.00
2023-05-24T08:44:02.704Z,11316.00
2023-05-24T08:45:02.682Z,11048.00
2023-05-24T08:46:02.687Z,10772.00
2023-05-24T08:47:02.679Z,10588.00
2023-05-24T08:48:02.697Z,9272.00
2023-05-24T08:49:02.710Z,9320.00
2023-05-24T08:50:02.633Z,10212.00
2023-05-24T08:51:02.625Z,9328.00
2023-05-24T08:52:02.636Z,8728.00
2023-05-24T08:53:02.592Z,9184.00
2023-05-24T08:54:02.582Z,10580.00
2023-05-24T08:55:02.571Z,12520.00
2023-05-24T08:56:02.566Z,13764.00
2023-05-24T08:57:02.547Z,13624.00
2023-05-24T08:58:02.564Z,13672.00
2023-05-24T08:59:02.538Z,14108.00
2023-05-24T09:00:02.620Z,12996.00
2023-05-24T09:01:02.603Z,13284.00
2023-05-24T09:02:02.568Z,14812.00
2023-05-24T09:03:02.589Z,17280.00
2023-05-24T09:04:02.528Z,19136.00
2023-05-24T09:05:02.489Z,18912.00
2023-05-24T09:06:02.452Z,17792.00
2023-05-24T09:07:02.441Z,17280.00
2023-05-24T09:08:02.520Z,16544.00
2023-05-24T09:09:02.422Z,16704.00
2023-05-24T09:10:02.410Z,16960.00
2023-05-24T09:11:02.393Z,16576.00
2023-05-24T09:12:02.386Z,14952.00
2023-05-24T09:13:02.380Z,15692.00
2023-05-24T09:14:02.384Z,16928.00
2023-05-24T09:15:02.352Z,16212.00
2023-05-24T09:16:02.386Z,15424.00
2023-05-24T09:17:02.361Z,14760.00
2023-05-24T09:18:02.334Z,14788.00
2023-05-24T09:19:02.316Z,14520.00
2023-05-24T09:20:02.373Z,13168.00
2023-05-24T09:21:02.280Z,12896.00
2023-05-24T09:22:02.267Z,12404.00
2023-05-24T09:23:02.399Z,12392.00
2023-05-24T09:24:02.319Z,12316.00
2023-05-24T09:25:02.237Z,12312.00
2023-05-24T09:26:02.218Z,12536.00
2023-05-24T09:27:02.207Z,16480.00
2023-05-24T09:28:02.206Z,18976.00
2023-05-24T09:29:02.183Z,18688.00
2023-05-24T09:30:02.167Z,20480.00
2023-05-24T09:31:04.561Z,20896.00
2023-05-24T09:32:02.262Z,19680.00
2023-05-24T09:33:02.259Z,17952.00
2023-05-24T09:34:02.134Z,17216.00
2023-05-24T09:35:02.118Z,17856.00
2023-05-24T09:36:02.114Z,18240.00
2023-05-24T09:37:02.109Z,22080.00
2023-05-24T09:38:02.076Z,25440.00
2023-05-24T09:39:02.070Z,28096.00
2023-05-24T09:40:02.090Z,29152.00
2023-05-24T09:41:02.053Z,28992.00
2023-05-24T09:42:02.047Z,28640.00
2023-05-24T09:43:02.029Z,27840.00
2023-05-24T09:44:02.010Z,26240.00
2023-05-24T09:45:02.009Z,27584.00
2023-05-24T09:46:01.997Z,31168.00
2023-05-24T09:47:02.036Z,32480.00
2023-05-24T09:48:02.024Z,29120.00
2023-05-24T09:49:02.110Z,29440.00
2023-05-24T09:50:01.963Z,33184.00
2023-05-24T09:51:01.994Z,34368.00
2023-05-24T09:52:01.997Z,37664.00
2023-05-24T09:53:01.915Z,35712.00
2023-05-24T09:54:01.926Z,32224.00
2023-05-24T09:55:01.891Z,28608.00
2023-05-24T09:56:02.072Z,29152.00
2023-05-24T09:57:03.463Z,28896.00
2023-05-24T09:58:01.866Z,30624.00
2023-05-24T09:59:01.850Z,35904.00
2023-05-24T10:00:01.919Z,40160.00
2023-05-24T10:01:01.896Z,45312.00
2023-05-24T10:02:01.817Z,49120.00
2023-05-24T10:03:01.905Z,58752.00
2023-05-24T10:04:01.991Z,56320.00
2023-05-24T10:05:01.802Z,58496.00
2023-05-24T10:06:01.774Z,66144.00
2023-05-24T10:07:01.758Z,63168.00
2023-05-24T10:08:01.749Z,65856.00
2023-05-24T10:09:01.751Z,60736.00
2023-05-24T10:10:01.741Z,65120.00
2023-05-24T10:11:01.731Z,80832.00
2023-05-24T10:12:01.761Z,51840.00
2023-05-24T10:13:01.737Z,38816.00
2023-05-24T10:14:01.709Z,30752.00
2023-05-24T10:15:01.694Z,26400.00
2023-05-24T10:16:01.674Z,24320.00
2023-05-24T10:17:01.709Z,22048.00
2023-05-24T10:18:01.878Z,20352.00
2023-05-24T10:19:01.629Z,20288.00
2023-05-24T10:20:01.747Z,19968.00
2023-05-24T10:21:01.997Z,21088.00
2023-05-24T10:22:01.692Z,22400.00
2023-05-24T10:23:02.109Z,23488.00
2023-05-24T10:24:01.693Z,21824.00
2023-05-24T10:25:01.686Z,18656.00
2023-05-24T10:26:01.679Z,17152.00
2023-05-24T10:27:01.559Z,15940.00
2023-05-24T10:28:01.659Z,15984.00
2023-05-24T10:29:01.525Z,16140.00
2023-05-24T10:30:01.520Z,15816.00
2023-05-24T10:31:01.658Z,14944.00
2023-05-24T10:32:01.481Z,13508.00
2023-05-24T10:33:01.533Z,13080.00
2023-05-24T10:34:07.963Z,13796.00
2023-05-24T10:35:02.527Z,14388.00
2023-05-24T10:36:01.462Z,15316.00
2023-05-24T10:37:01.426Z,17568.00
2023-05-24T10:38:01.429Z,19296.00
2023-05-24T10:39:01.407Z,20512.00
2023-05-24T10:40:01.396Z,21568.00
2023-05-24T10:41:01.399Z,22976.00
2023-05-24T10:42:01.382Z,23104.00
2023-05-24T10:43:01.356Z,23200.00
2023-05-24T10:44:09.923Z,23712.00
2023-05-24T10:45:02.533Z,24096.00
2023-05-24T10:46:01.388Z,24192.00
2023-05-24T10:47:01.323Z,24480.00
2023-05-24T10:48:01.321Z,25792.00
2023-05-24T10:49:01.289Z,28480.00
2023-05-24T10:50:01.283Z,30496.00
2023-05-24T10:51:01.302Z,32064.00
2023-05-24T10:52:01.275Z,33536.00
2023-05-24T10:53:01.248Z,33536.00
2023-05-24T10:54:01.227Z,31328.00
2023-05-24T10:55:04.336Z,29984.00
2023-05-24T10:56:01.221Z,29792.00
2023-05-24T10:57:01.200Z,29120.00
2023-05-24T10:58:01.196Z,28416.00
2023-05-24T10:59:01.181Z,28352.00
2023-05-24T11:00:01.224Z,27840.00
2023-05-24T11:01:01.162Z,27296.00
2023-05-24T11:02:01.327Z,26528.00
2023-05-24T11:03:01.217Z,25568.00
2023-05-24T11:04:01.131Z,24416.00
2023-05-24T11:05:01.133Z,24352.00
2023-05-24T11:06:01.184Z,24384.00
2023-05-24T11:07:01.111Z,24384.00
2023-05-24T11:08:01.098Z,24512.00
2023-05-24T11:09:01.106Z,24864.00
2023-05-24T11:10:01.076Z,23488.00
2023-05-24T11:11:11.492Z,20864.00
2023-05-24T11:12:02.074Z,19424.00
2023-05-24T11:13:01.046Z,18400.00
2023-05-24T11:14:01.017Z,19776.00
2023-05-24T11:15:01.001Z,21728.00
2023-05-24T11:16:01.047Z,23776.00
2023-05-24T11:17:00.985Z,25152.00
2023-05-24T11:18:01.023Z,26624.00
2023-05-24T11:19:00.967Z,26880.00
2023-05-24T11:20:01.000Z,25376.00
2023-05-24T11:21:00.941Z,23424.00
2023-05-24T11:22:00.924Z,20928.00
2023-05-24T11:23:00.914Z,19776.00
2023-05-24T11:24:00.910Z,21152.00
2023-05-24T11:25:00.896Z,22720.00
2023-05-24T11:26:00.877Z,22784.00
2023-05-24T11:27:00.872Z,22048.00
2023-05-24T11:28:00.911Z,20896.00
2023-05-24T11:29:04.091Z,19712.00
2023-05-24T11:30:00.853Z,18624.00
2023-05-24T11:31:00.828Z,17248.00
2023-05-24T11:32:00.897Z,15660.00
2023-05-24T11:33:00.838Z,15144.00
2023-05-24T11:34:00.787Z,14872.00
2023-05-24T11:35:00.798Z,14232.00
2023-05-24T11:36:00.781Z,13368.00
2023-05-24T11:37:00.753Z,13088.00
2023-05-24T11:38:00.754Z,13328.00
2023-05-24T11:39:00.734Z,13796.00
2023-05-24T11:40:00.722Z,13864.00
2023-05-24T11:41:00.714Z,13804.00
2023-05-24T11:42:00.703Z,13868.00
2023-05-24T11:43:00.692Z,13944.00
2023-05-24T11:44:00.690Z,13880.00
2023-05-24T11:45:00.668Z,13680.00
2023-05-24T11:46:00.740Z,13664.00
2023-05-24T11:47:00.685Z,14128.00
2023-05-24T11:48:00.750Z,14780.00
2023-05-24T11:49:00.621Z,15164.00
2023-05-24T11:50:00.612Z,15040.00
2023-05-24T11:51:00.601Z,14756.00
2023-05-24T11:52:00.585Z,14180.00
2023-05-24T11:53:00.592Z,13504.00
2023-05-24T11:54:00.584Z,13200.00
2023-05-24T11:55:00.562Z,13144.00
2023-05-24T11:56:00.544Z,13252.00
2023-05-24T11:57:00.548Z,13380.00
2023-05-24T11:58:00.528Z,13588.00
2023-05-24T11:59:00.515Z,14108.00
2023-05-24T12:00:00.513Z,14548.00
2023-05-24T12:01:00.488Z,15020.00
2023-05-24T12:02:00.579Z,15368.00
2023-05-24T12:03:00.545Z,15724.00
2023-05-24T12:04:00.570Z,16576.00
2023-05-24T12:05:00.673Z,17696.00
2023-05-24T12:06:00.437Z,18720.00
2023-05-24T12:07:00.423Z,20032.00
2023-05-24T12:08:00.404Z,21216.00
2023-05-24T12:09:00.396Z,21408.00
2023-05-24T12:10:00.390Z,20224.00
2023-05-24T12:11:00.373Z,17824.00
2023-05-24T12:12:00.363Z,15740.00
2023-05-24T12:13:00.355Z,15224.00
2023-05-24T12:14:00.336Z,15492.00
2023-05-24T12:15:00.340Z,15908.00